sensor_id;sensor_type;location;lat;lon;timestamp;pressure;altitude;pressure_sealevel;temperature;humidity
50790;BME280;37287;47.554;7.844;2023-06-14T00:00:03;97197.34;;;14.53;42.34
50790;BME280;37287;47.554;7.844;2023-06-14T00:02:30;97189.53;;;14.55;42.17
50790;BME280;37287;47.554;7.844;2023-06-14T00:04:59;97190.06;;;14.46;42.52
50790;BME280;37287;47.554;7.844;2023-06-14T00:07:37;97200.78;;;14.57;43.56
50790;BME280;37287;47.554;7.844;2023-06-14T00:10:11;97200.16;;;14.49;42.97
50790;BME280;37287;47.554;7.844;2023-06-14T00:12:38;97201.09;;;14.39;42.94
50790;BME280;37287;47.554;7.844;2023-06-14T00:15:06;97197.16;;;14.43;42.94
50790;BME280;37287;47.554;7.844;2023-06-14T00:17:39;97196.59;;;14.32;43.61
50790;BME280;37287;47.554;7.844;2023-06-14T00:20:06;97196.91;;;14.34;43.38
50790;BME280;37287;47.554;7.844;2023-06-14T00:22:34;97199.50;;;14.41;43.11
50790;BME280;37287;47.554;7.844;2023-06-14T00:25:05;97204.34;;;14.34;43.15
50790;BME280;37287;47.554;7.844;2023-06-14T00:27:49;97203.97;;;14.32;43.22
50790;BME280;37287;47.554;7.844;2023-06-14T00:30:18;97197.25;;;14.36;43.43
50790;BME280;37287;47.554;7.844;2023-06-14T00:32:45;97194.19;;;14.34;43.39
50790;BME280;37287;47.554;7.844;2023-06-14T00:35:12;97186.16;;;14.27;43.68
50790;BME280;37287;47.554;7.844;2023-06-14T00:37:41;97182.72;;;14.23;43.70
50790;BME280;37287;47.554;7.844;2023-06-14T00:40:08;97189.44;;;14.18;43.83
50790;BME280;37287;47.554;7.844;2023-06-14T00:42:34;97186.00;;;14.14;44.25
50790;BME280;37287;47.554;7.844;2023-06-14T00:45:03;97189.19;;;14.09;44.27
50790;BME280;37287;47.554;7.844;2023-06-14T00:47:30;97192.00;;;14.05;44.24
50790;BME280;37287;47.554;7.844;2023-06-14T00:49:58;97194.63;;;14.09;44.37
50790;BME280;37287;47.554;7.844;2023-06-14T00:52:27;97197.44;;;14.05;44.81
50790;BME280;37287;47.554;7.844;2023-06-14T00:54:54;97200.09;;;14.09;44.61
50790;BME280;37287;47.554;7.844;2023-06-14T00:57:23;97204.88;;;14.01;44.79
50790;BME280;37287;47.554;7.844;2023-06-14T00:59:53;97206.66;;;13.88;45.28
50790;BME280;37287;47.554;7.844;2023-06-14T01:02:21;97208.66;;;13.84;45.29
50790;BME280;37287;47.554;7.844;2023-06-14T01:04:49;97205.22;;;13.80;45.23
50790;BME280;37287;47.554;7.844;2023-06-14T01:07:33;97210.63;;;13.83;45.63
50790;BME280;37287;47.554;7.844;2023-06-14T01:10:26;97208.84;;;13.73;47.63
50790;BME280;37287;47.554;7.844;2023-06-14T01:13:15;97213.69;;;13.85;45.53
50790;BME280;37287;47.554;7.844;2023-06-14T01:15:47;97213.03;;;13.78;45.80
50790;BME280;37287;47.554;7.844;2023-06-14T01:18:13;97216.94;;;13.76;45.15
50790;BME280;37287;47.554;7.844;2023-06-14T01:20:48;97211.63;;;13.42;46.67
50790;BME280;37287;47.554;7.844;2023-06-14T01:23:18;97208.13;;;13.69;45.98
50790;BME280;37287;47.554;7.844;2023-06-14T01:25:45;97213.47;;;13.49;46.17
50790;BME280;37287;47.554;7.844;2023-06-14T01:28:15;97205.41;;;13.41;46.99
50790;BME280;37287;47.554;7.844;2023-06-14T01:30:46;97203.00;;;13.47;46.77
50790;BME280;37287;47.554;7.844;2023-06-14T01:33:16;97205.59;;;13.54;46.47
50790;BME280;37287;47.554;7.844;2023-06-14T01:35:46;97208.19;;;13.38;47.41
50790;BME280;37287;47.554;7.844;2023-06-14T01:38:13;97207.44;;;13.34;47.34
50790;BME280;37287;47.554;7.844;2023-06-14T01:40:42;97206.50;;;13.48;46.99
50790;BME280;37287;47.554;7.844;2023-06-14T01:43:10;97201.09;;;13.44;46.93
50790;BME280;37287;47.554;7.844;2023-06-14T01:45:40;97210.09;;;13.10;48.56
50790;BME280;37287;47.554;7.844;2023-06-14T01:48:08;97202.75;;;13.07;48.70
50790;BME280;37287;47.554;7.844;2023-06-14T01:50:35;97209.53;;;12.92;49.45
50790;BME280;37287;47.554;7.844;2023-06-14T01:53:07;97209.88;;;12.63;50.54
50790;BME280;37287;47.554;7.844;2023-06-14T01:55:34;97203.66;;;12.66;50.16
50790;BME280;37287;47.554;7.844;2023-06-14T01:58:08;97201.66;;;12.70;49.94
50790;BME280;37287;47.554;7.844;2023-06-14T02:00:36;97203.81;;;12.51;50.19
50790;BME280;37287;47.554;7.844;2023-06-14T02:03:03;97206.88;;;12.15;54.28
50790;BME280;37287;47.554;7.844;2023-06-14T02:05:33;97204.66;;;12.03;53.24
50790;BME280;37287;47.554;7.844;2023-06-14T02:08:01;97202.78;;;11.93;53.28
50790;BME280;37287;47.554;7.844;2023-06-14T02:10:29;97197.41;;;11.85;53.03
50790;BME280;37287;47.554;7.844;2023-06-14T02:12:57;97207.16;;;11.79;53.92
50790;BME280;37287;47.554;7.844;2023-06-14T02:15:24;97211.47;;;11.73;53.52
50790;BME280;37287;47.554;7.844;2023-06-14T02:17:54;97204.00;;;11.84;53.09
50790;BME280;37287;47.554;7.844;2023-06-14T02:20:20;97211.50;;;11.69;54.44
50790;BME280;37287;47.554;7.844;2023-06-14T02:22:47;97214.31;;;11.55;54.24
50790;BME280;37287;47.554;7.844;2023-06-14T02:25:14;97216.63;;;11.53;55.33
50790;BME280;37287;47.554;7.844;2023-06-14T02:27:41;97213.25;;;11.38;56.08
50790;BME280;37287;47.554;7.844;2023-06-14T02:30:08;97217.19;;;11.30;55.31
50790;BME280;37287;47.554;7.844;2023-06-14T02:32:35;97223.34;;;11.34;54.75
50790;BME280;37287;47.554;7.844;2023-06-14T02:35:03;97219.81;;;11.44;55.12
50790;BME280;37287;47.554;7.844;2023-06-14T02:37:31;97215.69;;;11.22;56.07
50790;BME280;37287;47.554;7.844;2023-06-14T02:39:58;97223.44;;;11.16;56.16
50790;BME280;37287;47.554;7.844;2023-06-14T02:42:25;97214.94;;;11.14;56.78
50790;BME280;37287;47.554;7.844;2023-06-14T02:44:53;97222.34;;;11.06;58.03
50790;BME280;37287;47.554;7.844;2023-06-14T02:47:20;97222.72;;;11.05;57.07
50790;BME280;37287;47.554;7.844;2023-06-14T02:49:46;97223.53;;;10.98;57.39
50790;BME280;37287;47.554;7.844;2023-06-14T02:52:15;97226.63;;;10.93;57.73
50790;BME280;37287;47.554;7.844;2023-06-14T02:54:42;97229.00;;;10.83;58.25
50790;BME280;37287;47.554;7.844;2023-06-14T02:57:09;97233.25;;;10.84;57.10
50790;BME280;37287;47.554;7.844;2023-06-14T02:59:37;97224.38;;;10.80;58.00
50790;BME280;37287;47.554;7.844;2023-06-14T03:02:04;97227.44;;;10.86;57.14
50790;BME280;37287;47.554;7.844;2023-06-14T03:04:33;97233.56;;;11.01;56.36
50790;BME280;37287;47.554;7.844;2023-06-14T03:07:09;97233.66;;;10.83;58.37
50790;BME280;37287;47.554;7.844;2023-06-14T03:09:36;97231.31;;;10.81;57.99
50790;BME280;37287;47.554;7.844;2023-06-14T03:12:04;97236.78;;;10.71;58.32
50790;BME280;37287;47.554;7.844;2023-06-14T03:14:35;97230.59;;;10.63;59.00
50790;BME280;37287;47.554;7.844;2023-06-14T03:17:02;97236.03;;;10.56;59.10
50790;BME280;37287;47.554;7.844;2023-06-14T03:19:31;97236.84;;;10.53;59.75
50790;BME280;37287;47.554;7.844;2023-06-14T03:21:58;97233.34;;;10.59;58.96
50790;BME280;37287;47.554;7.844;2023-06-14T03:24:25;97242.63;;;10.62;58.74
50790;BME280;37287;47.554;7.844;2023-06-14T03:26:55;97249.22;;;10.54;58.92
50790;BME280;37287;47.554;7.844;2023-06-14T03:29:26;97252.66;;;10.61;58.64
50790;BME280;37287;47.554;7.844;2023-06-14T03:31:59;97254.97;;;10.63;58.63
50790;BME280;37287;47.554;7.844;2023-06-14T03:34:28;97254.97;;;10.66;58.38
50790;BME280;37287;47.554;7.844;2023-06-14T03:36:55;97257.72;;;10.52;59.15
50790;BME280;37287;47.554;7.844;2023-06-14T03:39:22;97265.44;;;10.61;58.62
50790;BME280;37287;47.554;7.844;2023-06-14T03:41:50;97263.13;;;10.48;59.45
50790;BME280;37287;47.554;7.844;2023-06-14T03:44:17;97271.63;;;10.43;59.10
50790;BME280;37287;47.554;7.844;2023-06-14T03:46:45;97276.25;;;10.32;60.26
50790;BME280;37287;47.554;7.844;2023-06-14T03:49:16;97270.09;;;10.39;60.54
50790;BME280;37287;47.554;7.844;2023-06-14T03:51:43;97265.88;;;10.34;60.38
50790;BME280;37287;47.554;7.844;2023-06-14T03:54:10;97278.19;;;10.31;60.80
50790;BME280;37287;47.554;7.844;2023-06-14T03:57:03;97272.41;;;10.40;60.53
50790;BME280;37287;47.554;7.844;2023-06-14T03:59:30;97278.97;;;10.57;60.08
50790;BME280;37287;47.554;7.844;2023-06-14T04:01:59;97283.22;;;10.69;59.07
50790;BME280;37287;47.554;7.844;2023-06-14T04:04:25;97281.59;;;10.82;58.85
50790;BME280;37287;47.554;7.844;2023-06-14T04:06:56;97284.69;;;10.92;59.00
50790;BME280;37287;47.554;7.844;2023-06-14T04:09:24;97293.53;;;11.07;58.76
50790;BME280;37287;47.554;7.844;2023-06-14T04:11:52;97285.34;;;11.21;58.33
50790;BME280;37287;47.554;7.844;2023-06-14T04:14:19;97291.06;;;11.41;57.66
50790;BME280;37287;47.554;7.844;2023-06-14T04:16:50;97303.03;;;11.51;57.34
50790;BME280;37287;47.554;7.844;2023-06-14T04:19:17;97304.41;;;11.77;57.15
50790;BME280;37287;47.554;7.844;2023-06-14T04:21:44;97298.31;;;11.62;57.55
50790;BME280;37287;47.554;7.844;2023-06-14T04:24:17;97300.47;;;11.85;57.84
50790;BME280;37287;47.554;7.844;2023-06-14T04:26:44;97307.06;;;11.84;57.90
50790;BME280;37287;47.554;7.844;2023-06-14T04:29:11;97301.97;;;12.01;57.15
50790;BME280;37287;47.554;7.844;2023-06-14T04:31:45;97308.84;;;12.13;57.82
50790;BME280;37287;47.554;7.844;2023-06-14T04:34:12;97311.41;;;12.34;57.32
50790;BME280;37287;47.554;7.844;2023-06-14T04:36:47;97302.97;;;12.63;56.58
50790;BME280;37287;47.554;7.844;2023-06-14T04:39:21;97311.31;;;12.83;55.57
50790;BME280;37287;47.554;7.844;2023-06-14T04:41:48;97311.16;;;12.98;55.43
50790;BME280;37287;47.554;7.844;2023-06-14T04:44:23;97311.50;;;13.34;55.02
50790;BME280;37287;47.554;7.844;2023-06-14T04:46:57;97309.78;;;13.51;54.82
50790;BME280;37287;47.554;7.844;2023-06-14T04:49:26;97325.91;;;13.66;54.43
50790;BME280;37287;47.554;7.844;2023-06-14T04:51:56;97324.38;;;13.92;54.74
50790;BME280;37287;47.554;7.844;2023-06-14T04:54:25;97319.97;;;14.02;54.72
50790;BME280;37287;47.554;7.844;2023-06-14T04:56:54;97319.28;;;14.21;55.15
50790;BME280;37287;47.554;7.844;2023-06-14T04:59:22;97325.19;;;14.16;55.14
50790;BME280;37287;47.554;7.844;2023-06-14T05:01:51;97317.78;;;14.40;55.40
50790;BME280;37287;47.554;7.844;2023-06-14T05:04:20;97317.22;;;14.76;54.96
50790;BME280;37287;47.554;7.844;2023-06-14T05:06:48;97331.16;;;15.22;54.64
50790;BME280;37287;47.554;7.844;2023-06-14T05:09:15;97330.53;;;16.57;51.43
50790;BME280;37287;47.554;7.844;2023-06-14T05:11:50;97331.84;;;18.09;48.16
50790;BME280;37287;47.554;7.844;2023-06-14T05:14:18;97326.19;;;18.86;45.68
50790;BME280;37287;47.554;7.844;2023-06-14T05:16:48;97329.63;;;19.88;43.84
50790;BME280;37287;47.554;7.844;2023-06-14T05:19:17;97328.84;;;19.87;43.54
50790;BME280;37287;47.554;7.844;2023-06-14T05:21:44;97332.72;;;20.49;42.54
50790;BME280;37287;47.554;7.844;2023-06-14T05:24:13;97324.53;;;20.77;42.09
50790;BME280;37287;47.554;7.844;2023-06-14T05:26:44;97335.91;;;21.59;40.74
50790;BME280;37287;47.554;7.844;2023-06-14T05:29:11;97330.25;;;21.62;40.69
50790;BME280;37287;47.554;7.844;2023-06-14T05:31:38;97335.44;;;21.70;40.67
50790;BME280;37287;47.554;7.844;2023-06-14T05:34:04;97335.09;;;21.77;40.16
50790;BME280;37287;47.554;7.844;2023-06-14T05:36:31;97335.09;;;21.77;40.51
50790;BME280;37287;47.554;7.844;2023-06-14T05:38:58;97337.34;;;22.30;39.70
50790;BME280;37287;47.554;7.844;2023-06-14T05:41:27;97329.31;;;22.42;39.68
50790;BME280;37287;47.554;7.844;2023-06-14T05:43:54;97341.88;;;22.67;39.35
50790;BME280;37287;47.554;7.844;2023-06-14T05:46:22;97343.78;;;22.27;39.79
50790;BME280;37287;47.554;7.844;2023-06-14T05:48:52;97334.97;;;21.80;41.07
50790;BME280;37287;47.554;7.844;2023-06-14T05:51:19;97348.47;;;21.60;41.45
50790;BME280;37287;47.554;7.844;2023-06-14T05:53:46;97353.38;;;21.56;41.68
50790;BME280;37287;47.554;7.844;2023-06-14T05:56:14;97345.25;;;21.61;41.58
50790;BME280;37287;47.554;7.844;2023-06-14T05:58:41;97348.00;;;21.61;41.70
50790;BME280;37287;47.554;7.844;2023-06-14T06:01:07;97347.34;;;21.85;41.33
50790;BME280;37287;47.554;7.844;2023-06-14T06:03:36;97345.31;;;21.95;41.61
50790;BME280;37287;47.554;7.844;2023-06-14T06:06:03;97354.91;;;22.42;40.68
50790;BME280;37287;47.554;7.844;2023-06-14T06:08:30;97347.88;;;22.65;40.44
50790;BME280;37287;47.554;7.844;2023-06-14T06:11:02;97355.56;;;22.28;41.38
50790;BME280;37287;47.554;7.844;2023-06-14T06:13:30;97347.41;;;22.43;40.57
50790;BME280;37287;47.554;7.844;2023-06-14T06:15:57;97346.41;;;22.22;41.31
50790;BME280;37287;47.554;7.844;2023-06-14T06:18:25;97350.13;;;22.19;41.63
50790;BME280;37287;47.554;7.844;2023-06-14T06:20:54;97349.31;;;22.61;41.19
50790;BME280;37287;47.554;7.844;2023-06-14T06:23:22;97347.38;;;23.15;40.19
50790;BME280;37287;47.554;7.844;2023-06-14T06:25:48;97354.06;;;23.98;38.84
50790;BME280;37287;47.554;7.844;2023-06-14T06:28:15;97368.91;;;24.51;37.90
50790;BME280;37287;47.554;7.844;2023-06-14T06:30:41;97361.88;;;25.12;36.40
50790;BME280;37287;47.554;7.844;2023-06-14T06:33:08;97370.03;;;25.21;35.82
50790;BME280;37287;47.554;7.844;2023-06-14T06:35:35;97367.09;;;25.51;35.37
50790;BME280;37287;47.554;7.844;2023-06-14T06:38:01;97373.06;;;25.23;35.39
50790;BME280;37287;47.554;7.844;2023-06-14T06:40:30;97370.72;;;25.37;35.34
50790;BME280;37287;47.554;7.844;2023-06-14T06:42:57;97374.47;;;25.86;34.21
50790;BME280;37287;47.554;7.844;2023-06-14T06:45:24;97371.56;;;26.39;33.42
50790;BME280;37287;47.554;7.844;2023-06-14T06:47:51;97377.75;;;25.90;34.06
50790;BME280;37287;47.554;7.844;2023-06-14T06:50:18;97377.00;;;26.22;33.28
50790;BME280;37287;47.554;7.844;2023-06-14T06:52:46;97383.69;;;26.85;32.49
50790;BME280;37287;47.554;7.844;2023-06-14T06:55:18;97385.03;;;26.57;32.82
50790;BME280;37287;47.554;7.844;2023-06-14T06:57:45;97384.94;;;26.78;32.50
50790;BME280;37287;47.554;7.844;2023-06-14T07:00:12;97390.59;;;26.20;33.63
50790;BME280;37287;47.554;7.844;2023-06-14T07:02:40;97387.97;;;25.79;34.23
50790;BME280;37287;47.554;7.844;2023-06-14T07:05:09;97390.72;;;25.47;34.63
50790;BME280;37287;47.554;7.844;2023-06-14T07:07:36;97385.06;;;25.35;35.08
50790;BME280;37287;47.554;7.844;2023-06-14T07:10:04;97381.84;;;25.69;34.54
50790;BME280;37287;47.554;7.844;2023-06-14T07:12:31;97391.09;;;26.18;33.77
50790;BME280;37287;47.554;7.844;2023-06-14T07:15:00;97390.13;;;26.21;33.39
50790;BME280;37287;47.554;7.844;2023-06-14T07:17:29;97384.72;;;25.80;33.61
50790;BME280;37287;47.554;7.844;2023-06-14T07:19:56;97382.47;;;25.52;33.62
50790;BME280;37287;47.554;7.844;2023-06-14T07:22:22;97385.56;;;25.13;34.44
50790;BME280;37287;47.554;7.844;2023-06-14T07:24:54;97376.38;;;25.28;33.94
50790;BME280;37287;47.554;7.844;2023-06-14T07:27:21;97387.91;;;25.41;33.86
50790;BME280;37287;47.554;7.844;2023-06-14T07:29:48;97379.75;;;25.58;33.41
50790;BME280;37287;47.554;7.844;2023-06-14T07:32:19;97376.94;;;25.52;33.32
50790;BME280;37287;47.554;7.844;2023-06-14T07:34:46;97378.13;;;25.72;33.35
50790;BME280;37287;47.554;7.844;2023-06-14T07:37:13;97386.34;;;25.92;32.74
50790;BME280;37287;47.554;7.844;2023-06-14T07:39:40;97389.84;;;25.87;32.70
50790;BME280;37287;47.554;7.844;2023-06-14T07:42:07;97386.97;;;26.40;31.96
50790;BME280;37287;47.554;7.844;2023-06-14T07:44:34;97378.13;;;26.36;31.89
50790;BME280;37287;47.554;7.844;2023-06-14T07:47:02;97388.06;;;26.16;31.94
50790;BME280;37287;47.554;7.844;2023-06-14T07:49:29;97390.88;;;26.22;31.73
50790;BME280;37287;47.554;7.844;2023-06-14T07:51:55;97384.47;;;26.04;31.88
50790;BME280;37287;47.554;7.844;2023-06-14T07:54:22;97391.31;;;26.09;31.44
50790;BME280;37287;47.554;7.844;2023-06-14T07:56:52;97382.97;;;26.09;31.90
50790;BME280;37287;47.554;7.844;2023-06-14T07:59:19;97388.63;;;25.94;31.52
50790;BME280;37287;47.554;7.844;2023-06-14T08:01:46;97379.16;;;26.06;31.69
50790;BME280;37287;47.554;7.844;2023-06-14T08:04:17;97385.00;;;26.14;31.71
50790;BME280;37287;47.554;7.844;2023-06-14T08:06:45;97377.09;;;25.69;32.17
50790;BME280;37287;47.554;7.844;2023-06-14T08:09:14;97376.19;;;25.84;32.22
50790;BME280;37287;47.554;7.844;2023-06-14T08:11:41;97372.16;;;26.17;31.88
50790;BME280;37287;47.554;7.844;2023-06-14T08:14:09;97375.50;;;26.64;30.97
50790;BME280;37287;47.554;7.844;2023-06-14T08:16:40;97374.31;;;26.76;30.89
50790;BME280;37287;47.554;7.844;2023-06-14T08:19:07;97367.91;;;27.19;30.43
50790;BME280;37287;47.554;7.844;2023-06-14T08:21:37;97377.09;;;27.48;30.29
50790;BME280;37287;47.554;7.844;2023-06-14T08:24:05;97372.31;;;27.54;29.90
50790;BME280;37287;47.554;7.844;2023-06-14T08:26:32;97374.03;;;27.35;30.21
50790;BME280;37287;47.554;7.844;2023-06-14T08:28:59;97373.81;;;27.61;30.04
50790;BME280;37287;47.554;7.844;2023-06-14T08:31:26;97376.38;;;27.87;29.51
50790;BME280;37287;47.554;7.844;2023-06-14T08:33:53;97386.66;;;27.36;30.39
50790;BME280;37287;47.554;7.844;2023-06-14T08:36:20;97380.16;;;27.61;30.11
50790;BME280;37287;47.554;7.844;2023-06-14T08:38:51;97380.91;;;28.19;28.98
50790;BME280;37287;47.554;7.844;2023-06-14T08:41:21;97381.91;;;28.44;27.81
50790;BME280;37287;47.554;7.844;2023-06-14T08:43:49;97380.78;;;28.81;28.30
50790;BME280;37287;47.554;7.844;2023-06-14T08:46:18;97374.94;;;28.90;27.87
50790;BME280;37287;47.554;7.844;2023-06-14T08:48:49;97381.59;;;28.76;27.68
50790;BME280;37287;47.554;7.844;2023-06-14T08:51:19;97389.44;;;27.36;25.67
50790;BME280;37287;47.554;7.844;2023-06-14T08:53:54;97378.72;;;27.06;29.21
50790;BME280;37287;47.554;7.844;2023-06-14T08:56:32;97378.38;;;26.81;28.52
50790;BME280;37287;47.554;7.844;2023-06-14T08:59:02;97378.34;;;27.47;28.61
50790;BME280;37287;47.554;7.844;2023-06-14T09:01:34;97379.84;;;26.71;27.55
50790;BME280;37287;47.554;7.844;2023-06-14T09:04:01;97378.72;;;26.51;29.52
50790;BME280;37287;47.554;7.844;2023-06-14T09:06:29;97380.13;;;27.44;28.49
50790;BME280;37287;47.554;7.844;2023-06-14T09:08:56;97376.81;;;27.40;28.13
50790;BME280;37287;47.554;7.844;2023-06-14T09:11:24;97378.84;;;27.45;27.92
50790;BME280;37287;47.554;7.844;2023-06-14T09:13:54;97380.22;;;26.52;28.32
50790;BME280;37287;47.554;7.844;2023-06-14T09:16:23;97367.59;;;26.51;28.71
50790;BME280;37287;47.554;7.844;2023-06-14T09:18:51;97369.78;;;26.79;28.04
50790;BME280;37287;47.554;7.844;2023-06-14T09:21:18;97375.25;;;26.68;26.28
50790;BME280;37287;47.554;7.844;2023-06-14T09:23:46;97372.63;;;26.47;26.48
50790;BME280;37287;47.554;7.844;2023-06-14T09:26:15;97365.88;;;26.59;26.93
50790;BME280;37287;47.554;7.844;2023-06-14T09:28:48;97367.66;;;25.87;26.59
50790;BME280;37287;47.554;7.844;2023-06-14T09:31:17;97364.50;;;25.74;27.02
50790;BME280;37287;47.554;7.844;2023-06-14T09:33:45;97371.50;;;25.64;27.56
50790;BME280;37287;47.554;7.844;2023-06-14T09:36:21;97357.22;;;25.24;28.36
50790;BME280;37287;47.554;7.844;2023-06-14T09:41:38;97365.78;;;25.26;27.30
50790;BME280;37287;47.554;7.844;2023-06-14T09:44:07;97362.19;;;25.67;27.88
50790;BME280;37287;47.554;7.844;2023-06-14T09:46:47;97362.72;;;25.45;27.45
50790;BME280;37287;47.554;7.844;2023-06-14T09:49:14;97363.81;;;25.06;28.44
50790;BME280;37287;47.554;7.844;2023-06-14T09:51:43;97366.91;;;25.34;27.78
50790;BME280;37287;47.554;7.844;2023-06-14T09:54:15;97371.22;;;25.35;27.94
50790;BME280;37287;47.554;7.844;2023-06-14T09:56:47;97373.28;;;25.67;27.59
50790;BME280;37287;47.554;7.844;2023-06-14T09:59:19;97362.28;;;25.78;27.37
50790;BME280;37287;47.554;7.844;2023-06-14T10:01:50;97373.56;;;25.43;27.41
50790;BME280;37287;47.554;7.844;2023-06-14T10:04:19;97365.44;;;25.39;27.63
50790;BME280;37287;47.554;7.844;2023-06-14T10:06:49;97355.75;;;25.29;28.04
50790;BME280;37287;47.554;7.844;2023-06-14T10:09:17;97357.28;;;25.56;27.98
50790;BME280;37287;47.554;7.844;2023-06-14T10:11:44;97352.13;;;25.43;28.02
50790;BME280;37287;47.554;7.844;2023-06-14T10:14:12;97350.06;;;24.70;27.67
50790;BME280;37287;47.554;7.844;2023-06-14T10:17:07;97345.09;;;25.21;27.66
50790;BME280;37287;47.554;7.844;2023-06-14T10:19:49;97340.06;;;25.46;27.29
50790;BME280;37287;47.554;7.844;2023-06-14T10:22:25;97344.81;;;25.19;26.92
50790;BME280;37287;47.554;7.844;2023-06-14T10:24:54;97342.88;;;25.78;27.13
50790;BME280;37287;47.554;7.844;2023-06-14T10:27:20;97341.34;;;25.77;27.22
50790;BME280;37287;47.554;7.844;2023-06-14T10:32:21;97351.72;;;25.82;26.80
50790;BME280;37287;47.554;7.844;2023-06-14T10:35:16;97347.56;;;25.66;26.13
50790;BME280;37287;47.554;7.844;2023-06-14T10:37:46;97339.63;;;25.53;25.75
50790;BME280;37287;47.554;7.844;2023-06-14T10:40:30;97343.41;;;25.82;26.36
50790;BME280;37287;47.554;7.844;2023-06-14T10:42:57;97346.44;;;25.84;25.90
50790;BME280;37287;47.554;7.844;2023-06-14T10:45:24;97343.50;;;25.94;24.99
50790;BME280;37287;47.554;7.844;2023-06-14T10:47:50;97342.63;;;26.08;25.41
50790;BME280;37287;47.554;7.844;2023-06-14T10:50:27;97333.94;;;25.95;25.19
50790;BME280;37287;47.554;7.844;2023-06-14T10:52:55;97332.84;;;26.18;26.09
50790;BME280;37287;47.554;7.844;2023-06-14T10:55:21;97332.34;;;26.20;25.56
50790;BME280;37287;47.554;7.844;2023-06-14T10:57:56;97336.19;;;26.71;25.62
50790;BME280;37287;47.554;7.844;2023-06-14T11:00:28;97338.53;;;26.96;24.53
50790;BME280;37287;47.554;7.844;2023-06-14T11:11:10;97334.16;;;26.77;24.97
50790;BME280;37287;47.554;7.844;2023-06-14T11:13:42;97333.94;;;26.81;25.35
50790;BME280;37287;47.554;7.844;2023-06-14T11:16:11;97329.00;;;26.53;24.79
50790;BME280;37287;47.554;7.844;2023-06-14T11:18:41;97337.72;;;26.35;25.55
50790;BME280;37287;47.554;7.844;2023-06-14T11:21:07;97327.66;;;26.37;25.99
50790;BME280;37287;47.554;7.844;2023-06-14T11:23:35;97324.28;;;26.65;25.82
50790;BME280;37287;47.554;7.844;2023-06-14T11:26:02;97323.63;;;26.93;25.50
50790;BME280;37287;47.554;7.844;2023-06-14T11:28:38;97333.41;;;26.77;25.23
50790;BME280;37287;47.554;7.844;2023-06-14T11:31:09;97327.75;;;27.15;24.76
50790;BME280;37287;47.554;7.844;2023-06-14T11:33:36;97330.88;;;26.73;25.39
50790;BME280;37287;47.554;7.844;2023-06-14T11:36:03;97314.84;;;26.46;25.62
50790;BME280;37287;47.554;7.844;2023-06-14T11:38:36;97318.06;;;26.93;25.03
50790;BME280;37287;47.554;7.844;2023-06-14T11:41:06;97316.75;;;26.77;24.26
50790;BME280;37287;47.554;7.844;2023-06-14T11:43:35;97310.38;;;26.65;25.42
50790;BME280;37287;47.554;7.844;2023-06-14T11:46:12;97304.25;;;27.27;24.89
50790;BME280;37287;47.554;7.844;2023-06-14T11:48:43;97314.91;;;27.40;24.75
50790;BME280;37287;47.554;7.844;2023-06-14T11:51:16;97306.84;;;27.59;24.85
50790;BME280;37287;47.554;7.844;2023-06-14T11:53:43;97317.63;;;27.34;25.04
50790;BME280;37287;47.554;7.844;2023-06-14T11:56:10;97306.06;;;27.53;25.04
50790;BME280;37287;47.554;7.844;2023-06-14T11:58:36;97302.78;;;27.77;24.64
50790;BME280;37287;47.554;7.844;2023-06-14T12:01:05;97307.56;;;27.37;25.25
50790;BME280;37287;47.554;7.844;2023-06-14T12:03:33;97306.00;;;27.30;24.78
50790;BME280;37287;47.554;7.844;2023-06-14T12:06:05;97315.06;;;27.02;24.81
50790;BME280;37287;47.554;7.844;2023-06-14T12:08:37;97306.94;;;26.93;25.22
50790;BME280;37287;47.554;7.844;2023-06-14T12:11:13;97310.84;;;27.41;24.65
50790;BME280;37287;47.554;7.844;2023-06-14T12:13:41;97300.47;;;27.81;24.76
50790;BME280;37287;47.554;7.844;2023-06-14T12:16:11;97296.94;;;27.86;25.02
50790;BME280;37287;47.554;7.844;2023-06-14T12:18:39;97302.00;;;28.05;24.66
50790;BME280;37287;47.554;7.844;2023-06-14T12:21:10;97293.38;;;28.25;24.51
50790;BME280;37287;47.554;7.844;2023-06-14T12:23:48;97296.94;;;28.03;24.39
50790;BME280;37287;47.554;7.844;2023-06-14T12:26:19;97291.84;;;28.19;24.81
50790;BME280;37287;47.554;7.844;2023-06-14T12:28:47;97293.38;;;28.25;24.82
50790;BME280;37287;47.554;7.844;2023-06-14T12:31:16;97293.63;;;28.16;24.49
50790;BME280;37287;47.554;7.844;2023-06-14T12:33:43;97289.47;;;28.51;24.74
50790;BME280;37287;47.554;7.844;2023-06-14T12:36:13;97283.84;;;28.74;24.42
50790;BME280;37287;47.554;7.844;2023-06-14T12:38:39;97286.56;;;28.85;24.17
50790;BME280;37287;47.554;7.844;2023-06-14T12:41:06;97281.44;;;28.95;24.26
50790;BME280;37287;47.554;7.844;2023-06-14T12:43:34;97273.59;;;28.93;24.28
50790;BME280;37287;47.554;7.844;2023-06-14T12:46:00;97273.16;;;28.84;24.44
50790;BME280;37287;47.554;7.844;2023-06-14T12:48:29;97278.75;;;28.78;24.74
50790;BME280;37287;47.554;7.844;2023-06-14T12:50:57;97276.69;;;28.84;24.91
50790;BME280;37287;47.554;7.844;2023-06-14T12:53:28;97280.84;;;29.08;24.53
50790;BME280;37287;47.554;7.844;2023-06-14T12:55:56;97278.56;;;29.12;24.79
50790;BME280;37287;47.554;7.844;2023-06-14T12:58:23;97287.91;;;29.14;24.70
50790;BME280;37287;47.554;7.844;2023-06-14T13:00:52;97289.50;;;29.04;25.01
50790;BME280;37287;47.554;7.844;2023-06-14T13:03:23;97284.31;;;29.25;25.12
50790;BME280;37287;47.554;7.844;2023-06-14T13:05:49;97283.31;;;29.23;24.68
50790;BME280;37287;47.554;7.844;2023-06-14T13:08:16;97282.59;;;29.11;25.05
50790;BME280;37287;47.554;7.844;2023-06-14T13:10:43;97285.59;;;29.19;24.98
50790;BME280;37287;47.554;7.844;2023-06-14T13:13:11;97283.09;;;29.15;24.85
50790;BME280;37287;47.554;7.844;2023-06-14T13:15:40;97276.19;;;29.27;24.97
50790;BME280;37287;47.554;7.844;2023-06-14T13:18:08;97280.06;;;29.13;24.92
50790;BME280;37287;47.554;7.844;2023-06-14T13:20:35;97285.69;;;29.07;24.96
50790;BME280;37287;47.554;7.844;2023-06-14T13:23:06;97290.38;;;28.82;25.55